Giddings-Lee County Information

FAA: GYB - ICAO: KGYB

Giddings-Lee County (Airport) Location

State Texas
County Lee
City Giddings
Giddings-Lee County (Airport) is 3 miles west of Giddings, TX.
Latitude 30-10-09.4000N
Longitude 096-58-48.1000W
Elevation 484ft

Giddings-Lee County METARs

METAR KGYB 190055Z AUTO 18011G15KT 10SM CLR 19/12 A2991 RMK AO2 T01920115
Altimeter 29.91"
Temperature 19.2°C (66.6°F)
Wind 180° at 11KT with gusts to 15KT
Clouds Skies are clear.
Visibility 10.0mi
Time observed: 2022-01-19T00:55:00Z

Giddings-Lee County (Airport) Details

Status Operational
Activation September 1971
Ownership Public
Usage Public
Chart HOUSTON
ATC on-site No
Beacon schedule sunset-sunrise
Beacon color clear green

Giddings-Lee County (Airport) Contacts

Owner CITY OF GIDDINGS & LEE CO
Owner address 118 E RICHMOND, GIDDINGS, TX 78942
Owner phone 979-540-2710
Manager BOB WINGET
Manager address 1300 COASTWIDE DRIVE, GALVESTON, TX 77553
Manager phone 409-744-7126

Giddings-Lee County Radio Frequencies

Giddings-Lee County (Airport) Radio Frequencies

UNICOM 123.05
Common traffic advisory frequency (CTAF) 123.05